Time;durP1;ratioP1;P1;durP2;ratioP2;P2;SDS_P1;SDS_P2;PMS_P1;PMS_P2;Temp;Humidity;BMP_temperature;BMP_pressure;BME280_temperature;BME280_humidity;BME280_pressure;Samples;Min_cycle;Max_cycle;Signal;HPM_P1;HPM_P2
2023/04/24 00:00:14;;;;;;;26.42;17.10;;;;;;;7.97;100.00;99870.88;5061546;28;20379;-70
2023/04/24 00:02:40;;;;;;;25.77;17.23;;;;;;;7.95;100.00;99885.81;5065056;28;20028;-75
2023/04/24 00:05:07;;;;;;;28.23;17.23;;;;;;;7.92;100.00;99877.03;5061749;28;20068;-72
2023/04/24 00:07:33;;;;;;;27.73;17.80;;;;;;;7.94;100.00;99878.78;5064031;28;20025;-73
2023/04/24 00:09:59;;;;;;;28.40;17.55;;;;;;;7.98;100.00;99879.63;5062956;28;20038;-71
2023/04/24 00:12:24;;;;;;;27.58;17.75;;;;;;;7.97;100.00;99878.78;5062619;28;20169;-72
2023/04/24 00:14:50;;;;;;;28.55;18.05;;;;;;;7.97;100.00;99883.19;5064024;28;20031;-70
2023/04/24 00:17:16;;;;;;;29.08;18.67;;;;;;;7.88;100.00;99884.06;5061295;28;20508;-71
2023/04/24 00:19:41;;;;;;;29.33;19.40;;;;;;;7.84;100.00;99884.94;5064208;28;20484;-72
2023/04/24 00:22:07;;;;;;;30.25;19.25;;;;;;;7.80;100.00;99891.06;5061673;28;20159;-73
2023/04/24 00:24:32;;;;;;;32.15;20.42;;;;;;;7.76;100.00;99881.41;5063518;28;20029;-71
2023/04/24 00:26:58;;;;;;;31.92;20.08;;;;;;;7.75;100.00;99882.31;5062508;28;20468;-70
2023/04/24 00:29:23;;;;;;;32.78;20.45;;;;;;;7.74;100.00;99893.69;5062452;28;20032;-70
2023/04/24 00:31:49;;;;;;;34.17;20.73;;;;;;;7.75;100.00;99892.81;5063645;28;20415;-72
2023/04/24 00:34:14;;;;;;;32.92;22.27;;;;;;;7.68;100.00;99890.16;5060922;28;20047;-71
2023/04/24 00:36:40;;;;;;;34.38;21.92;;;;;;;7.62;100.00;99900.69;5064609;28;20025;-70
2023/04/24 00:39:06;;;;;;;33.80;22.02;;;;;;;7.58;100.00;99901.56;5061347;28;20068;-70
2023/04/24 00:41:34;;;;;;;34.78;22.30;;;;;;;7.57;100.00;99909.44;5063537;28;20025;-69
2023/04/24 00:43:59;;;;;;;35.15;23.60;;;;;;;7.53;100.00;99900.69;5062354;28;20356;-69
2023/04/24 00:46:24;;;;;;;36.28;23.38;;;;;;;7.53;100.00;99919.09;5062175;28;20425;-71
2023/04/24 00:48:50;;;;;;;37.55;24.20;;;;;;;7.47;100.00;99917.31;5063261;28;20090;-69
2023/04/24 00:51:15;;;;;;;33.53;21.45;;;;;;;7.55;100.00;99906.81;5061062;28;20029;-71
2023/04/24 00:53:41;;;;;;;37.05;23.42;;;;;;;7.47;100.00;99904.19;5064110;28;20467;-71
2023/04/24 00:56:06;;;;;;;37.38;23.63;;;;;;;7.51;100.00;99915.56;5061225;28;20037;-69
2023/04/24 00:58:32;;;;;;;35.95;24.23;;;;;;;7.50;100.00;99905.94;5062940;28;20029;-69
2023/04/24 01:00:58;;;;;;;37.72;23.33;;;;;;;7.58;100.00;99896.28;5062352;28;20032;-71
2023/04/24 01:03:26;;;;;;;38.03;24.48;;;;;;;7.56;100.00;99913.84;5060747;28;20123;-70
2023/04/24 01:05:54;;;;;;;37.67;24.15;;;;;;;7.55;100.00;99898.06;5063316;28;20024;-71
2023/04/24 01:08:20;;;;;;;39.15;25.25;;;;;;;7.53;100.00;99903.31;5061298;28;20379;-71
2023/04/24 01:10:48;;;;;;;39.40;25.73;;;;;;;7.52;100.00;99904.19;5064082;28;20365;-71
2023/04/24 01:13:13;;;;;;;37.35;25.70;;;;;;;7.53;100.00;99907.69;5060728;28;20025;-70
2023/04/24 01:15:39;;;;;;;38.85;25.10;;;;;;;7.48;100.00;99899.78;5063865;28;20497;-69
2023/04/24 01:18:04;;;;;;;42.30;26.17;;;;;;;7.43;100.00;99905.03;5061141;28;20029;-69
2023/04/24 01:20:31;;;;;;;39.45;26.45;;;;;;;7.44;100.00;99905.91;5062277;28;20052;-70
2023/04/24 01:22:57;;;;;;;37.63;25.77;;;;;;;7.40;100.00;99904.16;5062248;28;20033;-71
2023/04/24 01:25:23;;;;;;;40.25;26.00;;;;;;;7.39;100.00;99905.91;5061668;28;20021;-69
2023/04/24 01:27:48;;;;;;;40.42;26.80;;;;;;;7.41;100.00;99903.28;5063330;28;20028;-72
2023/04/24 01:30:14;;;;;;;40.55;27.60;;;;;;;7.33;100.00;99906.75;5060494;28;20029;-71
2023/04/24 01:32:44;;;;;;;41.70;27.08;;;;;;;7.32;100.00;99904.13;5063853;28;20028;-71
2023/04/24 01:35:10;;;;;;;45.80;30.13;;;;;;;7.30;100.00;99922.53;5060362;28;20090;-71
2023/04/24 01:37:37;;;;;;;45.00;30.65;;;;;;;7.33;100.00;99912.03;5063024;28;20031;-70
2023/04/24 01:40:03;;;;;;;44.53;30.52;;;;;;;7.32;100.00;99901.50;5062424;28;20043;-72
2023/04/24 01:42:30;;;;;;;46.28;31.65;;;;;;;7.27;100.00;99912.00;5064731;28;20495;-70
2023/04/24 01:44:56;;;;;;;50.88;32.05;;;;;;;7.27;100.00;99908.50;5066086;28;20099;-71
2023/04/24 01:47:22;;;;;;;53.75;34.50;;;;;;;7.24;100.00;99912.00;5064991;28;20224;-71
2023/04/24 01:49:48;;;;;;;53.67;34.63;;;;;;;7.21;100.00;99905.84;5066986;28;20037;-71
2023/04/24 01:52:13;;;;;;;51.42;34.42;;;;;;;7.24;100.00;99912.00;5062818;28;20361;-72
2023/04/24 01:54:39;;;;;;;54.80;36.95;;;;;;;7.20;100.00;99906.75;5067601;28;20067;-72
2023/04/24 01:57:05;;;;;;;53.15;35.53;;;;;;;7.18;100.00;99918.97;5063258;28;20028;-72
2023/04/24 01:59:33;;;;;;;54.35;34.50;;;;;;;7.19;100.00;99924.25;5065749;28;20088;-71
2023/04/24 02:01:58;;;;;;;53.05;36.10;;;;;;;7.18;100.00;99922.50;5065564;28;20033;-71
2023/04/24 02:04:23;;;;;;;52.28;35.78;;;;;;;7.11;100.00;99920.72;5065171;28;20048;-72
2023/04/24 02:06:49;;;;;;;54.13;36.55;;;;;;;7.09;100.00;99920.72;5066560;28;20033;-72
2023/04/24 02:09:14;;;;;;;55.88;37.20;;;;;;;7.05;100.00;99923.31;5063784;28;20056;-73
2023/04/24 02:11:39;;;;;;;49.55;33.83;;;;;;;7.10;100.00;99926.84;5066852;28;20086;-73
2023/04/24 02:14:05;;;;;;;53.13;35.70;;;;;;;7.07;100.00;99924.22;5064277;28;20025;-72
2023/04/24 02:16:32;;;;;;;57.30;36.40;;;;;;;6.98;100.00;99928.53;5066172;28;20021;-73
2023/04/24 02:18:57;;;;;;;53.53;35.38;;;;;;;6.98;100.00;99931.16;5064975;28;20475;-73
2023/04/24 02:21:23;;;;;;;56.55;37.03;;;;;;;6.95;100.00;99923.28;5064544;28;20043;-73
2023/04/24 02:23:48;;;;;;;58.47;36.55;;;;;;;6.93;100.00;99930.28;5066404;28;20025;-72
2023/04/24 02:26:13;;;;;;;56.45;36.13;;;;;;;6.93;100.00;99919.78;5063372;28;20059;-71
2023/04/24 02:28:39;;;;;;;54.33;36.60;;;;;;;6.94;100.00;99923.28;5066685;28;20033;-72
2023/04/24 02:31:06;;;;;;;55.75;34.60;;;;;;;6.94;100.00;99939.03;5062810;28;20391;-72
2023/04/24 02:33:31;;;;;;;54.10;32.55;;;;;;;6.94;100.00;99924.13;5065273;28;20053;-74
2023/04/24 02:35:56;;;;;;;54.75;35.33;;;;;;;6.89;100.00;99920.63;5065219;28;20052;-74
2023/04/24 02:38:22;;;;;;;52.97;35.25;;;;;;;6.92;100.00;99925.91;5063924;28;20025;-74
2023/04/24 02:40:47;;;;;;;54.65;35.15;;;;;;;6.90;100.00;99911.88;5066187;28;20036;-74
2023/04/24 02:43:12;;;;;;;57.30;36.90;;;;;;;6.88;100.00;99921.50;5063258;28;20378;-72
2023/04/24 02:45:38;;;;;;;56.45;35.35;;;;;;;6.85;100.00;99913.59;5065971;28;20116;-73
2023/04/24 02:48:03;;;;;;;55.95;35.00;;;;;;;6.85;100.00;99913.59;5063762;28;20057;-73
2023/04/24 02:50:29;;;;;;;58.60;36.53;;;;;;;6.81;100.00;99919.69;5064736;28;20480;-72
2023/04/24 02:52:54;;;;;;;56.72;35.70;;;;;;;6.84;100.00;99914.47;5063890;28;20107;-72
2023/04/24 02:55:19;;;;;;;56.67;35.15;;;;;;;6.80;100.00;99920.56;5063283;28;20032;-72
2023/04/24 02:57:45;;;;;;;57.30;36.75;;;;;;;6.82;100.00;99908.34;5066427;28;20097;-72
2023/04/24 03:00:11;;;;;;;58.80;37.72;;;;;;;6.80;100.00;99912.69;5062640;28;20032;-72
2023/04/24 03:02:36;;;;;;;53.85;35.80;;;;;;;6.84;100.00;99905.72;5065748;28;20082;-72
2023/04/24 03:05:03;;;;;;;54.97;35.75;;;;;;;6.83;100.00;99902.22;5062432;28;20028;-72
2023/04/24 03:07:28;;;;;;;55.42;35.25;;;;;;;6.84;100.00;99903.09;5064139;28;20074;-72
2023/04/24 03:09:54;;;;;;;57.03;37.38;;;;;;;6.82;100.00;99912.72;5065119;28;20036;-72
2023/04/24 03:12:19;;;;;;;53.55;36.55;;;;;;;6.84;100.00;99908.34;5062764;28;20021;-72
2023/04/24 03:14:44;;;;;;;52.90;35.05;;;;;;;6.81;100.00;99906.56;5065853;28;20541;-72
2023/04/24 03:17:10;;;;;;;52.63;36.15;;;;;;;6.83;100.00;99920.59;5062746;28;20033;-72
2023/04/24 03:19:35;;;;;;;56.38;34.05;;;;;;;6.79;100.00;99909.19;5064394;28;20114;-72
2023/04/24 03:22:02;;;;;;;51.20;34.28;;;;;;;6.76;100.00;99914.44;5063696;28;20115;-71
2023/04/24 03:24:28;;;;;;;52.60;35.08;;;;;;;6.78;100.00;99914.44;5063880;28;20048;-73
2023/04/24 03:26:53;;;;;;;51.92;35.20;;;;;;;6.76;100.00;99917.06;5064671;28;20017;-73
2023/04/24 03:29:19;;;;;;;50.63;33.60;;;;;;;6.77;100.00;99925.81;5061217;28;20547;-73
2023/04/24 03:31:44;;;;;;;46.83;31.13;;;;;;;6.79;100.00;99918.84;5065750;28;20042;-73
2023/04/24 03:34:10;;;;;;;47.40;32.10;;;;;;;6.76;100.00;99919.69;5060803;28;20474;-70
2023/04/24 03:36:35;;;;;;;47.30;30.88;;;;;;;6.80;100.00;99915.31;5064404;28;20033;-71
2023/04/24 03:39:00;;;;;;;47.75;30.92;;;;;;;6.78;100.00;99912.69;5063440;28;20036;-73
2023/04/24 03:41:26;;;;;;;46.65;31.40;;;;;;;6.76;100.00;99917.06;5063184;28;20033;-73
2023/04/24 03:43:51;;;;;;;46.97;31.02;;;;;;;6.76;100.00;99908.31;5064746;28;20029;-73
2023/04/24 03:46:16;;;;;;;42.00;29.00;;;;;;;6.75;100.00;99909.16;5061826;28;20117;-71
2023/04/24 03:48:42;;;;;;;45.58;30.63;;;;;;;6.79;100.00;99903.94;5064121;28;20439;-72
2023/04/24 03:51:07;;;;;;;44.47;31.23;;;;;;;6.75;100.00;99910.03;5062718;28;20119;-73
2023/04/24 03:53:33;;;;;;;43.53;28.60;;;;;;;6.81;100.00;99906.56;5063698;28;20070;-73
2023/04/24 03:55:58;;;;;;;44.67;28.65;;;;;;;6.78;100.00;99911.81;5063362;28;20524;-72
2023/04/24 03:58:23;;;;;;;43.17;28.73;;;;;;;6.79;100.00;99910.94;5062751;28;20395;-73
2023/04/24 04:00:49;;;;;;;42.58;29.13;;;;;;;6.78;100.00;99915.31;5064434;28;20043;-73
2023/04/24 04:03:15;;;;;;;42.38;27.83;;;;;;;6.76;100.00;99908.31;5061173;28;20029;-73
2023/04/24 04:05:40;;;;;;;43.05;28.45;;;;;;;6.76;100.00;99909.19;5064831;28;20034;-74
2023/04/24 04:08:06;;;;;;;43.50;28.20;;;;;;;6.78;100.00;99912.69;5062184;28;20025;-73
2023/04/24 04:10:31;;;;;;;41.85;27.05;;;;;;;6.77;100.00;99899.53;5063343;28;20032;-74
2023/04/24 04:12:56;;;;;;;41.47;28.10;;;;;;;6.72;100.00;99914.41;5063522;28;20115;-74
2023/04/24 04:15:22;;;;;;;41.28;27.83;;;;;;;6.76;100.00;99917.06;5061925;28;20434;-74
2023/04/24 04:17:47;;;;;;;44.35;28.20;;;;;;;6.74;100.00;99915.28;5064817;28;20032;-74
2023/04/24 04:20:13;;;;;;;42.58;29.23;;;;;;;6.71;100.00;99910.88;5060820;28;20053;-76
2023/04/24 04:22:38;;;;;;;41.15;26.88;;;;;;;6.72;100.00;99923.16;5062889;28;20123;-76
2023/04/24 04:25:04;;;;;;;41.60;27.40;;;;;;;6.75;100.00;99917.06;5062391;28;20399;-75
2023/04/24 04:27:31;;;;;;;40.80;27.80;;;;;;;6.73;100.00;99917.03;5062864;28;20021;-74
2023/04/24 04:30:01;;;;;;;40.70;27.20;;;;;;;6.70;100.00;99917.03;5063332;28;20077;-76
2023/04/24 04:32:26;;;;;;;40.58;27.13;;;;;;;6.71;100.00;99910.03;5062664;28;20032;-76
2023/04/24 04:34:53;;;;;;;39.90;26.27;;;;;;;6.67;100.00;99922.28;5063895;28;20028;-77
2023/04/24 04:37:18;;;;;;;40.42;26.85;;;;;;;6.68;100.00;99925.78;5061271;28;20044;-76
2023/04/24 04:39:44;;;;;;;39.40;25.85;;;;;;;6.67;100.00;99924.00;5064588;28;20036;-77
2023/04/24 04:42:09;;;;;;;41.22;26.20;;;;;;;6.66;100.00;99917.00;5061505;28;20032;-77
2023/04/24 04:44:35;;;;;;;38.00;24.80;;;;;;;6.68;100.00;99915.25;5063366;28;20039;-77
2023/04/24 04:47:03;;;;;;;36.47;24.38;;;;;;;6.68;100.00;99925.78;5061379;28;20105;-77
2023/04/24 04:49:29;;;;;;;35.95;22.88;;;;;;;6.69;100.00;99932.78;5062715;28;20044;-76
2023/04/24 04:51:54;;;;;;;37.15;23.75;;;;;;;6.66;100.00;99927.53;5063405;28;20020;-76
2023/04/24 04:54:19;;;;;;;35.95;23.80;;;;;;;6.67;100.00;99938.03;5061450;28;20047;-77
2023/04/24 04:56:45;;;;;;;37.60;23.88;;;;;;;6.63;100.00;99929.25;5064486;28;20548;-76
2023/04/24 04:59:10;;;;;;;36.50;24.17;;;;;;;6.67;100.00;99929.25;5061114;28;20037;-76
2023/04/24 05:01:36;;;;;;;34.75;22.38;;;;;;;6.65;100.00;99936.25;5063782;28;20032;-77
2023/04/24 05:04:02;;;;;;;35.47;22.98;;;;;;;6.63;100.00;99942.38;5062367;28;20103;-77
2023/04/24 05:06:27;;;;;;;34.42;21.83;;;;;;;6.66;100.00;99938.03;5062217;28;20111;-78
2023/04/24 05:08:56;;;;;;;35.97;22.42;;;;;;;6.65;100.00;99936.25;5063802;28;20033;-78
2023/04/24 05:11:22;;;;;;;36.13;23.45;;;;;;;6.67;100.00;99945.00;5061380;28;20444;-78
2023/04/24 05:13:48;;;;;;;37.17;23.80;;;;;;;6.67;100.00;99945.00;5064351;28;20115;-75
2023/04/24 05:16:13;;;;;;;36.20;22.40;;;;;;;6.66;100.00;99940.66;5064356;28;20051;-78
2023/04/24 05:18:38;;;;;;;36.55;21.67;;;;;;;6.66;100.00;99943.28;5067909;28;20021;-79
2023/04/24 05:21:04;;;;;;;36.05;22.17;;;;;;;6.67;100.00;99950.25;5065611;28;20484;-72
2023/04/24 05:23:29;;;;;;;35.25;21.23;;;;;;;6.68;100.00;99937.13;5066238;28;20390;-73
2023/04/24 05:25:54;;;;;;;34.08;19.92;;;;;;;6.67;100.00;99964.31;5066824;28;20021;-73
2023/04/24 05:28:20;;;;;;;29.65;16.90;;;;;;;6.69;100.00;99953.81;5064881;28;20029;-73
2023/04/24 05:30:46;;;;;;;31.42;16.85;;;;;;;6.67;100.00;99971.28;5066598;28;20043;-73
2023/04/24 05:33:11;;;;;;;31.35;17.38;;;;;;;6.68;100.00;99973.91;5061359;28;20029;-72
2023/04/24 05:35:37;;;;;;;29.35;13.55;;;;;;;6.64;100.00;99966.91;5062585;28;20049;-72
2023/04/24 05:38:02;;;;;;;25.98;13.15;;;;;;;6.60;100.00;99975.63;5068363;28;20020;-75
2023/04/24 05:40:28;;;;;;;24.02;11.05;;;;;;;6.56;100.00;99958.09;5062972;28;20041;-73
2023/04/24 05:42:53;;;;;;;23.40;10.23;;;;;;;6.54;100.00;99973.84;5068202;28;20108;-74
2023/04/24 05:45:19;;;;;;;22.60;10.05;;;;;;;6.50;100.00;99973.81;5065031;28;20113;-74
2023/04/24 05:47:44;;;;;;;23.55;10.05;;;;;;;6.50;100.00;99990.44;5066619;28;20056;-74
2023/04/24 05:50:10;;;;;;;22.63;9.65;;;;;;;6.49;100.00;99996.53;5067121;28;20047;-75
2023/04/24 05:52:36;;;;;;;21.60;8.27;;;;;;;6.47;100.00;100000.06;5066655;28;20037;-75
2023/04/24 05:55:01;;;;;;;21.48;9.05;;;;;;;6.49;100.00;99993.91;5065640;28;20036;-73
2023/04/24 05:57:27;;;;;;;21.83;9.07;;;;;;;6.47;100.00;100006.16;5063956;28;20055;-74
2023/04/24 05:59:52;;;;;;;21.80;9.50;;;;;;;6.53;100.00;100019.34;5065180;28;20514;-74
2023/04/24 06:02:17;;;;;;;23.63;10.95;;;;;;;6.50;100.00;100021.06;5067275;28;20040;-74
2023/04/24 06:04:43;;;;;;;21.92;9.82;;;;;;;6.51;100.00;100017.56;5064033;28;20038;-79
2023/04/24 06:07:10;;;;;;;24.30;11.40;;;;;;;6.52;100.00;100028.06;5065749;28;20115;-77
2023/04/24 06:09:36;;;;;;;23.20;10.82;;;;;;;6.50;100.00;100027.19;5066498;28;20028;-77
2023/04/24 06:12:02;;;;;;;25.48;12.20;;;;;;;6.52;100.00;100033.31;5066359;28;20017;-77
2023/04/24 06:14:28;;;;;;;24.80;12.00;;;;;;;6.55;100.00;100038.63;5066698;28;20052;-74
2023/04/24 06:16:53;;;;;;;26.02;13.65;;;;;;;6.61;100.00;100037.78;5067680;28;20100;-77
2023/04/24 06:19:18;;;;;;;30.40;16.13;;;;;;;6.61;100.00;100049.19;5063793;28;20086;-74
2023/04/24 06:21:44;;;;;;;30.23;17.38;;;;;;;6.61;100.00;100046.56;5067263;28;20063;-73
2023/04/24 06:24:09;;;;;;;33.63;18.70;;;;;;;6.65;100.00;100062.31;5067586;28;20082;-76
2023/04/24 06:26:35;;;;;;;32.42;17.80;;;;;;;6.63;100.00;100071.06;5067580;28;20028;-78
2023/04/24 06:29:00;;;;;;;34.58;18.52;;;;;;;6.66;100.00;100069.34;5064371;28;20029;-76
2023/04/24 06:31:25;;;;;;;34.88;21.92;;;;;;;6.71;100.00;100078.13;5067986;28;20033;-79
2023/04/24 06:33:51;;;;;;;34.55;20.90;;;;;;;6.69;100.00;100090.38;5067248;28;20028;-73
2023/04/24 06:36:17;;;;;;;36.60;22.00;;;;;;;6.68;100.00;100102.63;5060548;28;20033;-73
2023/04/24 06:38:42;;;;;;;35.80;21.65;;;;;;;6.69;100.00;100109.63;5067009;28;20029;-72
2023/04/24 06:41:07;;;;;;;36.15;21.70;;;;;;;6.74;100.00;100112.28;5066504;28;20392;-75
2023/04/24 06:43:33;;;;;;;36.40;22.88;;;;;;;6.74;100.00;100121.09;5065902;28;20032;-79
2023/04/24 06:46:00;;;;;;;36.72;23.55;;;;;;;6.66;100.00;100127.13;5065882;28;20107;-76
2023/04/24 06:48:26;;;;;;;35.15;21.85;;;;;;;6.70;100.00;100121.00;5062450;28;20029;-77
2023/04/24 06:50:52;;;;;;;38.42;23.33;;;;;;;6.65;100.00;100128.84;5065247;28;20033;-78
2023/04/24 06:53:17;;;;;;;36.88;22.15;;;;;;;6.56;100.00;100132.28;5058850;28;20392;-77
2023/04/24 06:55:44;;;;;;;39.25;24.25;;;;;;;6.62;100.00;100142.84;5063303;28;20027;-78
2023/04/24 06:58:10;;;;;;;35.58;19.70;;;;;;;6.63;100.00;100154.25;5065932;28;20057;-77
2023/04/24 07:00:35;;;;;;;37.40;21.50;;;;;;;6.65;100.00;100162.13;5067315;28;20047;-76
2023/04/24 07:03:02;;;;;;;37.97;22.15;;;;;;;6.57;100.00;100181.31;5065089;28;20028;-78
2023/04/24 07:05:28;;;;;;;37.83;22.23;;;;;;;6.55;100.00;100188.31;5065751;28;20117;-80
2023/04/24 07:07:53;;;;;;;37.92;21.25;;;;;;;6.54;100.00;100181.28;5065709;28;20105;-76
2023/04/24 07:10:19;;;;;;;38.08;21.83;;;;;;;6.52;100.00;100190.88;5061494;28;20392;-75
2023/04/24 07:12:46;;;;;;;35.45;17.85;;;;;;;6.54;100.00;100204.03;5065672;28;20040;-78
2023/04/24 07:15:11;;;;;;;38.92;22.08;;;;;;;6.47;100.00;100207.50;5063983;28;20381;-75
2023/04/24 07:17:38;;;;;;;37.08;21.08;;;;;;;6.43;100.00;100217.06;5063744;28;20050;-75
2023/04/24 07:20:04;;;;;;;35.35;19.92;;;;;;;6.57;100.00;100230.34;5068561;28;20139;-75
2023/04/24 07:22:30;;;;;;;34.53;19.80;;;;;;;6.59;100.00;100236.50;5063296;28;20048;-72
2023/04/24 07:24:55;;;;;;;37.00;21.65;;;;;;;6.51;100.00;100243.38;5067142;28;20029;-80
2023/04/24 07:27:20;;;;;;;38.10;21.83;;;;;;;6.41;100.00;100248.53;5066497;28;20064;-79
2023/04/24 07:29:46;;;;;;;35.70;20.98;;;;;;;6.51;100.00;100253.91;5062913;28;20029;-79
2023/04/24 07:32:11;;;;;;;39.83;21.95;;;;;;;6.46;100.00;100256.47;5064447;28;20032;-78
2023/04/24 07:34:36;;;;;;;40.35;22.45;;;;;;;6.53;100.00;100255.69;5065413;28;20025;-79
2023/04/24 07:37:02;;;;;;;39.08;22.55;;;;;;;6.58;100.00;100282.00;5064721;28;20470;-79
2023/04/24 07:39:29;;;;;;;39.72;22.80;;;;;;;6.59;100.00;100295.13;5064229;28;20101;-78
2023/04/24 07:41:54;;;;;;;40.03;23.80;;;;;;;6.53;100.00;100302.09;5059540;28;20029;-80
2023/04/24 07:44:19;;;;;;;37.60;20.23;;;;;;;6.53;100.00;100302.09;5064105;28;20033;-78
2023/04/24 07:46:45;;;;;;;32.88;18.23;;;;;;;6.57;100.00;100302.13;5081091;28;20040;-80
2023/04/24 07:49:10;;;;;;;31.52;16.65;;;;;;;6.62;100.00;100310.06;5064178;28;20116;-80
2023/04/24 07:51:38;;;;;;;29.90;15.18;;;;;;;6.58;100.00;100313.50;5066736;28;20111;-80
2023/04/24 07:54:05;;;;;;;28.95;12.90;;;;;;;6.56;100.00;100315.25;5063943;28;20036;-80
2023/04/24 07:56:31;;;;;;;31.50;13.40;;;;;;;6.54;100.00;100327.47;5061940;28;20094;-76
2023/04/24 07:58:57;;;;;;;29.42;13.35;;;;;;;6.57;100.00;100338.03;5065154;28;20028;-76
2023/04/24 08:01:22;;;;;;;31.58;13.98;;;;;;;6.53;100.00;100329.22;5062092;28;20108;-76
2023/04/24 08:03:47;;;;;;;32.47;13.07;;;;;;;6.56;100.00;100342.38;5064188;28;20072;-76
2023/04/24 08:06:13;;;;;;;30.15;13.63;;;;;;;6.51;100.00;100348.44;5063132;28;20025;-77
2023/04/24 08:08:38;;;;;;;32.13;13.43;;;;;;;6.52;100.00;100361.59;5062969;28;20129;-76
2023/04/24 08:11:04;;;;;;;35.28;15.85;;;;;;;6.51;100.00;100359.84;5064121;28;20145;-76
2023/04/24 08:13:29;;;;;;;31.90;14.80;;;;;;;6.53;100.00;100368.59;5061211;28;20029;-76
2023/04/24 08:15:56;;;;;;;32.40;15.20;;;;;;;6.52;100.00;100376.47;5065278;28;20039;-76
2023/04/24 08:18:22;;;;;;;34.60;15.07;;;;;;;6.53;100.00;100375.63;5061475;28;20207;-76
2023/04/24 08:20:47;;;;;;;33.15;16.17;;;;;;;6.57;100.00;100380.06;5063368;28;20065;-76
2023/04/24 08:23:13;;;;;;;37.78;16.70;;;;;;;6.74;100.00;100385.50;5062882;28;20033;-76
2023/04/24 08:25:38;;;;;;;39.20;18.08;;;;;;;6.74;100.00;100382.88;5061355;28;20033;-76
2023/04/24 08:28:06;;;;;;;36.15;16.90;;;;;;;6.79;100.00;100387.34;5064387;28;20382;-76
2023/04/24 08:30:31;;;;;;;35.75;17.75;;;;;;;6.72;100.00;100400.38;5061474;28;20036;-76
2023/04/24 08:32:57;;;;;;;36.75;16.60;;;;;;;6.80;100.00;100393.44;5064419;28;20033;-76
2023/04/24 08:35:23;;;;;;;35.13;17.48;;;;;;;6.74;100.00;100404.81;5061292;28;20444;-76
2023/04/24 08:37:48;;;;;;;34.65;18.02;;;;;;;6.73;100.00;100412.66;5063486;28;20025;-76
2023/04/24 08:40:16;;;;;;;37.22;15.70;;;;;;;6.83;100.00;100419.78;5062355;28;20042;-76
2023/04/24 08:42:43;;;;;;;33.35;15.02;;;;;;;6.78;100.00;100419.72;5062783;28;20033;-76
2023/04/24 08:45:10;;;;;;;35.80;15.23;;;;;;;6.73;100.00;100425.78;5063059;28;20060;-76
2023/04/24 08:47:38;;;;;;;30.58;13.75;;;;;;;6.82;100.00;100431.16;5061566;28;20029;-76
2023/04/24 08:50:05;;;;;;;29.52;10.90;;;;;;;6.90;100.00;100432.16;5063000;28;20070;-76
2023/04/24 08:52:32;;;;;;;29.13;11.35;;;;;;;7.16;100.00;100439.44;5061200;28;20060;-76
2023/04/24 08:54:59;;;;;;;30.73;11.48;;;;;;;7.30;100.00;100443.13;5064168;28;20035;-76
2023/04/24 08:57:26;;;;;;;28.40;9.52;;;;;;;7.20;100.00;100440.38;5056712;28;20489;-76
2023/04/24 08:59:53;;;;;;;28.63;10.77;;;;;;;7.08;100.00;100442.00;5062479;28;20024;-76
2023/04/24 09:02:18;;;;;;;30.63;10.50;;;;;;;6.90;100.00;100452.28;5060183;28;20543;-76
2023/04/24 09:04:45;;;;;;;27.27;9.93;;;;;;;6.76;100.00;100446.84;5062829;28;20029;-77
2023/04/24 09:07:13;;;;;;;28.15;10.07;;;;;;;6.75;100.00;100451.19;5062694;28;20016;-76
2023/04/24 09:09:40;;;;;;;30.85;10.73;;;;;;;6.73;100.00;100465.19;5061796;28;20290;-76
2023/04/24 09:12:06;;;;;;;28.65;9.70;;;;;;;6.70;100.00;100459.88;5063281;28;20035;-76
2023/04/24 09:14:32;;;;;;;26.27;9.98;;;;;;;6.59;100.00;100465.84;5061164;28;20037;-76
2023/04/24 09:16:57;;;;;;;25.85;9.23;;;;;;;6.69;100.00;100469.50;5064286;28;20045;-78
2023/04/24 09:19:23;;;;;;;25.58;8.90;;;;;;;6.76;100.00;100475.75;5061392;28;20468;-79
2023/04/24 09:21:48;;;;;;;26.38;8.70;;;;;;;6.90;100.00;100466.31;5061809;28;20396;-80
2023/04/24 09:24:20;;;;;;;27.27;9.10;;;;;;;7.14;100.00;100475.38;5055513;28;20373;-80
2023/04/24 09:26:46;;;;;;;26.10;8.32;;;;;;;7.31;100.00;100475.56;5056758;28;20021;-79
2023/04/24 09:29:18;;;;;;;23.90;7.60;;;;;;;7.30;100.00;100484.31;5063908;28;20111;-80
2023/04/24 09:31:45;;;;;;;25.48;8.20;;;;;;;7.20;100.00;100491.22;5056421;28;20037;-79
2023/04/24 09:34:11;;;;;;;26.85;8.98;;;;;;;7.00;100.00;100503.22;5063731;28;20025;-81
2023/04/24 09:36:38;;;;;;;24.58;7.18;;;;;;;6.93;100.00;100507.50;5061936;28;20035;-80
2023/04/24 09:39:10;;;;;;;26.67;7.70;;;;;;;6.92;100.00;100504.00;5062767;28;20074;-80
2023/04/24 09:41:44;;;;;;;24.45;7.07;;;;;;;6.78;100.00;100516.06;5062182;28;20369;-80
2023/04/24 09:44:15;;;;;;;22.83;6.47;;;;;;;6.89;100.00;100514.47;5063483;28;20021;-77
2023/04/24 09:46:48;;;;;;;22.67;6.43;;;;;;;6.97;100.00;100512.84;5061217;28;20036;-79
2023/04/24 09:49:16;;;;;;;21.45;5.70;;;;;;;6.93;100.00;100511.03;5056710;28;20032;-80
2023/04/24 09:51:42;;;;;;;20.00;4.95;;;;;;;6.95;100.00;100519.81;5063785;28;20024;-79
2023/04/24 09:54:15;;;;;;;20.33;4.70;;;;;;;7.09;100.00;100527.88;5061576;28;20032;-79
2023/04/24 09:56:45;;;;;;;18.88;4.90;;;;;;;7.33;100.00;100532.56;5063947;28;20029;-80
2023/04/24 09:59:12;;;;;;;19.15;4.40;;;;;;;7.53;100.00;100529.31;5060957;28;20067;-77
2023/04/24 10:01:40;;;;;;;19.52;4.80;;;;;;;7.73;100.00;100536.53;5064938;28;20033;-78
2023/04/24 10:04:06;;;;;;;19.52;4.18;;;;;;;7.94;100.00;100522.75;5065522;28;20497;-81
2023/04/24 10:06:35;;;;;;;18.73;4.43;;;;;;;8.60;100.00;100527.72;5066089;28;20112;-81
2023/04/24 10:09:02;;;;;;;19.08;3.97;;;;;;;8.75;100.00;100534.84;5065722;28;20488;-81
2023/04/24 10:11:27;;;;;;;18.40;4.20;;;;;;;9.02;100.00;100531.53;5065235;28;20473;-81
2023/04/24 10:13:53;;;;;;;19.73;4.15;;;;;;;8.79;100.00;100528.75;5099332;28;20040;-81
2023/04/24 10:16:20;;;;;;;17.52;3.80;;;;;;;8.45;100.00;100497.75;5064180;28;20025;-81
2023/04/24 10:18:48;;;;;;;15.70;3.60;;;;;;;8.25;100.00;100523.91;5061994;28;20070;-78
2023/04/24 10:21:15;;;;;;;17.65;4.18;;;;;;;7.89;100.00;100538.47;5063492;28;20064;-79
2023/04/24 10:23:42;;;;;;;18.95;4.13;;;;;;;7.74;100.00;100533.91;5063774;28;20036;-80
2023/04/24 10:26:09;;;;;;;16.15;3.78;;;;;;;7.74;100.00;100543.56;5064439;28;20511;-79
2023/04/24 10:28:36;;;;;;;14.15;3.15;;;;;;;7.75;100.00;100555.88;5065395;28;20024;-82
2023/04/24 10:31:02;;;;;;;16.95;3.38;;;;;;;7.63;100.00;100553.97;5065823;28;20025;-79
2023/04/24 10:33:30;;;;;;;14.50;2.78;;;;;;;7.76;100.00;100563.78;5065102;28;20029;-79
2023/04/24 10:35:58;;;;;;;11.82;2.58;;;;;;;7.71;100.00;100560.22;5065809;28;20379;-80
2023/04/24 10:38:26;;;;;;;13.38;2.70;;;;;;;7.61;100.00;100555.69;5061683;28;20095;-78
2023/04/24 10:40:58;;;;;;;14.25;2.90;;;;;;;7.58;100.00;100563.56;5065387;28;20032;-76
2023/04/24 10:43:23;;;;;;;11.98;2.50;;;;;;;7.67;100.00;100558.41;5063308;28;20036;-74
2023/04/24 10:46:05;;;;;;;11.13;2.40;;;;;;;7.91;100.00;100564.81;5060218;28;20368;-77
2023/04/24 10:48:32;;;;;;;14.52;2.70;;;;;;;7.98;100.00;100559.63;5066315;28;20021;-79
2023/04/24 10:50:57;;;;;;;9.27;2.47;;;;;;;8.01;100.00;100570.19;5066739;28;20033;-79
2023/04/24 10:53:28;;;;;;;10.73;2.60;;;;;;;8.20;100.00;100575.66;5063445;28;20032;-81
2023/04/24 10:55:58;;;;;;;15.40;3.13;;;;;;;8.25;100.00;100573.94;5065520;28;20033;-79
2023/04/24 10:58:24;;;;;;;12.25;2.80;;;;;;;8.40;100.00;100585.47;5066712;28;20025;-78
2023/04/24 11:00:57;;;;;;;13.02;2.47;;;;;;;8.40;100.00;100583.72;5063891;28;20142;-78
2023/04/24 11:03:34;;;;;;;12.88;2.80;;;;;;;8.54;100.00;100586.53;5066439;28;20029;-78
2023/04/24 11:06:08;;;;;;;13.73;2.50;;;;;;;8.60;100.00;100581.28;5062699;28;20025;-78
2023/04/24 11:08:39;;;;;;;11.85;2.75;;;;;;;8.48;100.00;100586.47;5065910;28;20558;-77